University Gardens, New York
Current Conditions -  °F | °C
As of 3:51 PM on Wednesday 26 Nov 2014 (Local Time) from KLGA Reporting Station
Light Rain Light Rain  
Wind Chill: 28°   Ceiling: 1200
Heat Index: 37°   Visibility: 4mi
Dew Point: 34°   Wind: 16mph
Humidity: 89%   Direction: 10°N
Pressure: 29.83"   Gusts: NA
Location:  40.7702°N, 73.7108°W
Report Text: KLGA 262051Z 01014KT 4SM -RA SCT008 OVC012 03/01 A2983 RMK AO2 SNE24 SLP101 P0006 60028 T00280011 56064
Loading
Personal Weather Stations






























Interactive Weather Map New forecast layout! Learn more

10-Day Weather Forecast

Advertisements
Track Severe Weather on mobile